createdAt,value
2022-09-06T00:01:30.909Z,73.80
2022-09-06T00:03:58.305Z,73.37
2022-09-06T00:06:25.438Z,73.98
2022-09-06T00:08:52.477Z,73.63
2022-09-06T00:11:19.697Z,73.35
2022-09-06T00:13:47.444Z,73.99
2022-09-06T00:16:30.116Z,74.29
2022-09-06T00:18:57.655Z,74.24
2022-09-06T00:21:27.821Z,74.32
2022-09-06T00:23:55.366Z,74.62
2022-09-06T00:26:23.097Z,74.63
2022-09-06T00:28:50.209Z,74.38
2022-09-06T00:31:22.774Z,74.70
2022-09-06T00:33:50.522Z,74.49
2022-09-06T00:36:18.463Z,74.46
2022-09-06T00:38:45.847Z,74.28
2022-09-06T00:41:14.312Z,74.33
2022-09-06T00:43:41.994Z,74.62
2022-09-06T00:46:11.708Z,74.94
2022-09-06T00:48:39.503Z,74.50
2022-09-06T00:51:09.737Z,74.20
2022-09-06T00:53:36.948Z,74.08
2022-09-06T00:56:04.257Z,74.30
2022-09-06T00:58:31.410Z,73.98
2022-09-06T01:00:58.492Z,74.19
2022-09-06T01:03:25.816Z,73.96
2022-09-06T01:06:04.960Z,74.32
2022-09-06T01:08:59.564Z,73.98
2022-09-06T01:11:49.284Z,74.10
2022-09-06T01:14:18.996Z,74.17
2022-09-06T01:16:54.455Z,74.26
2022-09-06T01:19:40.590Z,74.30
2022-09-06T01:22:38.270Z,74.60
2022-09-06T01:25:33.866Z,74.58
2022-09-06T01:28:32.128Z,74.27
2022-09-06T01:31:23.651Z,73.90
2022-09-06T01:34:05.665Z,74.83
2022-09-06T01:37:10.378Z,74.89
2022-09-06T01:39:40.261Z,74.57
2022-09-06T01:42:10.899Z,74.70
2022-09-06T01:44:39.940Z,74.47
2022-09-06T01:47:17.426Z,74.36
2022-09-06T01:50:12.863Z,74.70
2022-09-06T01:52:53.027Z,74.40
2022-09-06T01:55:34.662Z,74.37
2022-09-06T01:58:31.871Z,74.82
2022-09-06T02:01:03.509Z,74.76
2022-09-06T02:03:40.886Z,74.64
2022-09-06T02:06:13.088Z,74.40
2022-09-06T02:08:47.305Z,74.58
2022-09-06T02:11:14.692Z,74.61
2022-09-06T02:13:49.202Z,74.76
2022-09-06T02:16:20.201Z,74.94
2022-09-06T02:18:58.855Z,75.22
2022-09-06T02:21:29.634Z,74.52
2022-09-06T02:24:00.967Z,74.52
2022-09-06T02:26:30.792Z,73.84
2022-09-06T02:28:58.078Z,73.71
2022-09-06T02:31:51.240Z,73.59
2022-09-06T02:34:19.527Z,73.67
2022-09-06T02:36:46.731Z,73.49
2022-09-06T02:39:13.990Z,73.49
2022-09-06T02:41:42.430Z,73.61
2022-09-06T02:44:09.551Z,73.35
2022-09-06T02:46:36.632Z,73.22
2022-09-06T02:49:03.839Z,73.15
2022-09-06T02:51:31.139Z,72.87
2022-09-06T02:53:58.145Z,72.97
2022-09-06T02:56:25.163Z,73.42
2022-09-06T02:58:52.188Z,73.39
2022-09-06T03:01:19.275Z,72.91
2022-09-06T03:03:46.361Z,72.68
2022-09-06T03:06:13.346Z,73.05
2022-09-06T03:08:40.384Z,73.32
2022-09-06T03:11:07.525Z,73.51
2022-09-06T03:13:34.559Z,73.12
2022-09-06T03:16:01.771Z,73.35
2022-09-06T03:18:30.485Z,73.46
2022-09-06T03:20:58.545Z,73.55
2022-09-06T03:23:27.335Z,73.27
2022-09-06T03:25:54.501Z,73.48
2022-09-06T03:28:22.262Z,73.63
2022-09-06T03:30:50.240Z,73.92
2022-09-06T03:33:18.255Z,73.84
2022-09-06T03:35:57.064Z,73.96
2022-09-06T03:38:25.737Z,73.34
2022-09-06T03:40:53.318Z,73.25
2022-09-06T03:43:21.748Z,73.53
2022-09-06T03:45:50.757Z,73.43
2022-09-06T03:48:20.439Z,73.11
2022-09-06T03:50:49.347Z,73.43
2022-09-06T03:53:17.189Z,73.42
2022-09-06T03:55:45.247Z,73.38
2022-09-06T03:58:12.302Z,73.37
2022-09-06T04:00:39.429Z,73.53
2022-09-06T04:03:06.784Z,73.34
2022-09-06T04:05:33.774Z,73.39
2022-09-06T04:08:00.953Z,73.34
2022-09-06T04:10:28.547Z,73.39
2022-09-06T04:12:55.602Z,73.66
2022-09-06T04:15:22.667Z,73.38
2022-09-06T04:17:49.737Z,73.30
2022-09-06T04:20:17.386Z,73.36
2022-09-06T04:22:44.428Z,73.61
2022-09-06T04:25:13.668Z,72.90
2022-09-06T04:27:40.712Z,72.68
2022-09-06T04:30:08.399Z,72.48
2022-09-06T04:32:35.459Z,72.74
2022-09-06T04:35:02.677Z,72.98
2022-09-06T04:37:30.187Z,72.37
2022-09-06T04:39:57.226Z,72.36
2022-09-06T04:42:24.449Z,72.21
2022-09-06T04:44:51.494Z,72.58
2022-09-06T04:47:19.235Z,72.49
2022-09-06T04:49:48.208Z,72.52
2022-09-06T04:52:15.784Z,72.49
2022-09-06T04:54:43.336Z,72.28
2022-09-06T04:57:10.893Z,72.23
2022-09-06T04:59:38.039Z,72.43
2022-09-06T05:02:05.195Z,72.65
2022-09-06T05:04:32.259Z,72.61
2022-09-06T05:07:03.334Z,72.24
2022-09-06T05:09:31.557Z,72.68
2022-09-06T05:11:58.768Z,72.69
2022-09-06T05:14:26.715Z,72.73
2022-09-06T05:16:54.384Z,72.34
2022-09-06T05:19:21.581Z,72.06
2022-09-06T05:21:51.086Z,72.06
2022-09-06T05:24:18.361Z,72.09
2022-09-06T05:26:45.428Z,72.34
2022-09-06T05:29:12.541Z,72.68
2022-09-06T05:31:39.694Z,72.37
2022-09-06T05:34:06.823Z,72.36
2022-09-06T05:36:33.859Z,72.63
2022-09-06T05:39:01.185Z,72.73
2022-09-06T05:41:28.271Z,72.38
2022-09-06T05:43:55.320Z,71.65
2022-09-06T05:46:22.400Z,71.87
2022-09-06T05:48:54.413Z,72.09
2022-09-06T05:51:21.518Z,71.71
2022-09-06T05:53:48.657Z,71.67
2022-09-06T05:56:16.122Z,71.42
2022-09-06T05:58:43.201Z,71.91
2022-09-06T06:01:21.615Z,71.42
2022-09-06T06:03:57.062Z,71.17
2022-09-06T06:06:25.193Z,71.39
2022-09-06T06:08:52.213Z,71.21
2022-09-06T06:11:19.598Z,71.63
2022-09-06T06:13:46.602Z,70.63
2022-09-06T06:16:15.550Z,70.53
2022-09-06T06:18:47.622Z,70.29
2022-09-06T06:21:20.908Z,70.05
2022-09-06T06:23:51.078Z,70.48
2022-09-06T06:26:18.757Z,70.56
2022-09-06T06:28:46.504Z,70.10
2022-09-06T06:31:14.233Z,70.30
2022-09-06T06:33:42.784Z,70.34
2022-09-06T06:36:13.250Z,70.21
2022-09-06T06:38:42.329Z,70.44
2022-09-06T06:41:11.472Z,70.45
2022-09-06T06:43:38.740Z,70.50
2022-09-06T06:46:08.621Z,70.42
2022-09-06T06:48:37.092Z,70.50
2022-09-06T06:51:04.224Z,70.39
2022-09-06T06:53:32.763Z,70.05
2022-09-06T06:55:59.909Z,70.18
2022-09-06T06:58:30.856Z,69.87
2022-09-06T07:00:58.510Z,70.10
2022-09-06T07:03:25.603Z,70.27
2022-09-06T07:08:40.220Z,69.80
2022-09-06T07:11:09.908Z,69.41
2022-09-06T07:13:37.121Z,69.70
2022-09-06T07:16:17.547Z,69.50
2022-09-06T07:18:45.809Z,69.60
2022-09-06T07:24:08.294Z,69.44
2022-09-06T07:26:37.549Z,69.44
2022-09-06T07:29:05.562Z,69.59
2022-09-06T07:34:22.060Z,69.53
2022-09-06T07:36:53.111Z,69.21
2022-09-06T07:39:20.247Z,68.99
2022-09-06T07:41:47.288Z,68.93
2022-09-06T07:44:14.315Z,69.01
2022-09-06T07:46:41.441Z,69.55
2022-09-06T07:49:08.759Z,68.97
2022-09-06T07:51:35.794Z,68.54
2022-09-06T07:54:26.222Z,67.96
2022-09-06T07:56:50.023Z,67.46
2022-09-06T07:59:17.129Z,67.24
2022-09-06T08:01:44.250Z,66.75
2022-09-06T08:04:13.946Z,66.40
2022-09-06T08:09:33.701Z,65.12
2022-09-06T08:12:06.599Z,65.16
2022-09-06T08:14:33.976Z,64.98
2022-09-06T08:17:01.413Z,64.96
2022-09-06T08:19:28.484Z,64.58
2022-09-06T08:21:56.067Z,63.49
2022-09-06T08:24:23.161Z,64.14
2022-09-06T08:26:50.326Z,64.59
2022-09-06T08:29:17.389Z,62.86
2022-09-06T08:31:44.739Z,63.25
2022-09-06T08:34:15.310Z,62.81
2022-09-06T08:36:43.529Z,63.27
2022-09-06T08:39:11.057Z,62.91
2022-09-06T08:41:52.004Z,62.44
2022-09-06T08:47:12.687Z,62.24
2022-09-06T08:49:54.577Z,60.64
2022-09-06T08:52:30.294Z,59.10
2022-09-06T08:55:46.485Z,58.89
2022-09-06T08:58:29.946Z,59.10
2022-09-06T09:01:07.376Z,59.30
2022-09-06T09:03:39.321Z,60.00
2022-09-06T09:06:07.613Z,60.40
2022-09-06T09:08:44.303Z,59.01
2022-09-06T09:11:18.654Z,59.87
2022-09-06T09:13:59.195Z,60.26
2022-09-06T09:16:26.452Z,59.57
2022-09-06T09:18:56.207Z,58.65
2022-09-06T09:21:30.228Z,58.33
2022-09-06T09:24:02.877Z,58.61
2022-09-06T09:26:35.041Z,58.12
2022-09-06T09:29:13.266Z,58.60
2022-09-06T09:31:43.301Z,58.31
2022-09-06T09:34:12.497Z,57.83
2022-09-06T09:36:40.053Z,57.73
2022-09-06T09:39:11.171Z,58.11
2022-09-06T09:41:41.151Z,58.88
2022-09-06T09:44:17.310Z,57.19
2022-09-06T09:46:44.431Z,56.68
2022-09-06T09:49:13.958Z,57.50
2022-09-06T09:52:05.204Z,56.13
2022-09-06T09:54:35.861Z,56.74
2022-09-06T09:57:11.710Z,55.96
2022-09-06T09:59:46.678Z,54.87
2022-09-06T10:02:19.629Z,55.63
2022-09-06T10:04:49.761Z,55.69
2022-09-06T10:07:19.804Z,55.93
2022-09-06T10:10:13.461Z,55.66
2022-09-06T10:12:42.062Z,56.61
2022-09-06T10:15:11.809Z,56.16
2022-09-06T10:17:52.229Z,55.02
2022-09-06T10:20:19.323Z,53.62
2022-09-06T10:22:57.377Z,54.24
2022-09-06T10:25:46.229Z,53.07
2022-09-06T10:28:34.525Z,52.17
2022-09-06T10:31:27.172Z,51.28
2022-09-06T10:34:13.276Z,52.75
2022-09-06T10:36:45.774Z,51.62
2022-09-06T10:39:36.640Z,52.39
2022-09-06T10:42:22.125Z,51.28
2022-09-06T10:45:26.484Z,50.76
2022-09-06T10:47:58.410Z,49.22
2022-09-06T10:50:38.515Z,48.83
2022-09-06T10:53:30.569Z,48.41
2022-09-06T10:56:10.351Z,47.92
2022-09-06T11:01:41.652Z,47.93
2022-09-06T11:04:13.463Z,47.47
2022-09-06T11:06:45.603Z,46.21
2022-09-06T11:09:20.589Z,46.80
2022-09-06T11:12:01.349Z,47.42
2022-09-06T11:14:29.032Z,47.19
2022-09-06T11:17:08.922Z,46.34
2022-09-06T11:19:46.234Z,47.15
2022-09-06T11:22:33.549Z,47.68
2022-09-06T11:25:38.216Z,48.18
2022-09-06T11:28:09.137Z,48.18
2022-09-06T11:30:36.401Z,49.04
2022-09-06T11:33:13.488Z,48.75
2022-09-06T11:35:41.347Z,48.71
2022-09-06T11:38:14.159Z,48.25
2022-09-06T11:40:43.831Z,48.16
2022-09-06T11:43:16.822Z,48.61
2022-09-06T11:45:52.476Z,49.50
2022-09-06T11:48:26.632Z,48.62
2022-09-06T11:50:53.829Z,48.95
2022-09-06T11:53:22.453Z,49.29
2022-09-06T11:55:51.881Z,49.25
2022-09-06T11:58:19.131Z,49.34
2022-09-06T12:00:47.508Z,49.10
2022-09-06T12:04:09.077Z,49.42
2022-09-06T12:06:42.132Z,50.39
2022-09-06T12:09:32.134Z,55.45
2022-09-06T12:12:00.097Z,59.06
2022-09-06T12:14:41.311Z,62.73
2022-09-06T12:17:09.003Z,66.16
2022-09-06T12:20:07.920Z,68.27
2022-09-06T12:22:38.730Z,71.11
2022-09-06T12:25:15.556Z,73.45
2022-09-06T12:28:02.917Z,76.86
2022-09-06T12:30:32.273Z,78.48
2022-09-06T12:33:00.430Z,80.24
2022-09-06T12:38:23.616Z,81.72
2022-09-06T12:40:58.513Z,81.20
2022-09-06T12:43:26.062Z,81.39
2022-09-06T12:45:53.197Z,81.33
2022-09-06T12:48:31.050Z,83.19
2022-09-06T12:51:02.860Z,83.45
2022-09-06T12:53:31.599Z,83.68
2022-09-06T12:56:05.417Z,82.95
2022-09-06T12:58:32.448Z,84.18
2022-09-06T13:01:07.761Z,85.69
2022-09-06T13:03:44.056Z,86.13
2022-09-06T13:06:20.421Z,87.48
2022-09-06T13:08:55.647Z,86.89
2022-09-06T13:11:32.349Z,87.85
2022-09-06T13:13:59.463Z,88.00
2022-09-06T13:16:37.375Z,89.65
2022-09-06T13:19:19.443Z,89.09
2022-09-06T13:21:46.968Z,88.93
2022-09-06T13:24:23.495Z,87.38
2022-09-06T13:26:50.976Z,87.89
2022-09-06T13:29:18.103Z,86.92
2022-09-06T13:31:46.832Z,87.89
2022-09-06T13:34:22.030Z,88.42
2022-09-06T13:36:50.630Z,89.07
2022-09-06T13:39:35.382Z,87.93
2022-09-06T13:42:05.836Z,88.01
2022-09-06T13:44:35.590Z,88.06
2022-09-06T13:47:03.118Z,87.06
2022-09-06T13:49:30.891Z,87.05
2022-09-06T13:52:03.169Z,87.48
2022-09-06T13:54:31.157Z,86.33
2022-09-06T13:56:58.277Z,86.31
2022-09-06T13:59:25.401Z,85.83
2022-09-06T14:02:07.776Z,86.55
2022-09-06T14:04:35.648Z,86.10
2022-09-06T14:07:03.422Z,86.40
2022-09-06T14:09:30.767Z,86.86
2022-09-06T14:11:57.852Z,87.03
2022-09-06T14:14:25.007Z,87.02
2022-09-06T14:16:52.921Z,86.55
2022-09-06T14:19:20.150Z,86.76
2022-09-06T14:21:47.216Z,86.58
2022-09-06T14:24:14.291Z,86.74
2022-09-06T14:26:41.536Z,86.45
2022-09-06T14:29:08.697Z,86.40
2022-09-06T14:31:35.874Z,86.18
2022-09-06T14:34:04.084Z,85.77
2022-09-06T14:36:32.608Z,86.31
2022-09-06T14:39:00.701Z,85.02
2022-09-06T14:41:28.467Z,85.19
2022-09-06T14:43:57.163Z,86.12
2022-09-06T14:46:25.744Z,85.45
2022-09-06T14:49:00.772Z,84.30
2022-09-06T14:51:28.173Z,83.26
2022-09-06T14:54:02.072Z,83.36
2022-09-06T14:56:30.349Z,83.14
2022-09-06T14:58:58.340Z,83.07
2022-09-06T15:01:28.550Z,83.02
2022-09-06T15:04:02.372Z,84.00
2022-09-06T15:06:31.055Z,83.20
2022-09-06T15:08:59.554Z,83.32
2022-09-06T15:11:38.535Z,82.67
2022-09-06T15:14:08.511Z,83.62
2022-09-06T15:16:36.195Z,84.31
2022-09-06T15:19:03.703Z,82.47
2022-09-06T15:21:31.353Z,81.50
2022-09-06T15:23:59.851Z,79.38
2022-09-06T15:26:26.961Z,78.54
2022-09-06T15:28:54.169Z,78.63
2022-09-06T15:31:21.428Z,78.15
2022-09-06T15:33:50.964Z,77.17
2022-09-06T15:36:18.580Z,76.63
2022-09-06T15:38:48.075Z,76.88
2022-09-06T15:41:25.537Z,76.76
2022-09-06T15:43:57.574Z,76.04
2022-09-06T15:46:42.660Z,75.85
2022-09-06T15:49:12.082Z,76.47
2022-09-06T15:51:40.336Z,76.10
2022-09-06T15:54:07.918Z,76.06
2022-09-06T15:56:35.084Z,76.21
2022-09-06T15:59:02.099Z,75.94
2022-09-06T16:01:29.336Z,75.30
2022-09-06T16:04:05.513Z,75.35
2022-09-06T16:06:42.011Z,74.98
2022-09-06T16:09:11.441Z,74.69
2022-09-06T16:11:38.854Z,74.16
2022-09-06T16:14:07.916Z,72.63
2022-09-06T16:16:35.861Z,71.03
2022-09-06T16:19:03.216Z,72.33
2022-09-06T16:21:32.224Z,71.45
2022-09-06T16:24:07.269Z,71.45
2022-09-06T16:26:40.145Z,70.65
2022-09-06T16:29:08.202Z,71.33
2022-09-06T16:31:40.016Z,70.87
2022-09-06T16:34:08.566Z,70.91
2022-09-06T16:36:35.653Z,71.40
2022-09-06T16:39:03.521Z,71.06
2022-09-06T16:41:42.506Z,71.27
2022-09-06T16:44:15.911Z,71.67
2022-09-06T16:46:47.823Z,71.85
2022-09-06T16:49:19.331Z,71.47
2022-09-06T16:51:47.885Z,71.14
2022-09-06T16:54:16.822Z,71.56
2022-09-06T16:56:44.272Z,71.07
2022-09-06T16:59:12.036Z,71.82
2022-09-06T17:01:42.515Z,71.37
2022-09-06T17:04:10.355Z,71.20
2022-09-06T17:06:44.493Z,71.19
2022-09-06T17:09:13.739Z,71.33
2022-09-06T17:11:40.869Z,71.27
2022-09-06T17:14:07.939Z,71.46
2022-09-06T17:16:53.780Z,71.10
2022-09-06T17:19:21.046Z,70.41
2022-09-06T17:21:48.186Z,71.04
2022-09-06T17:24:15.541Z,70.79
2022-09-06T17:26:42.644Z,70.88
2022-09-06T17:29:10.427Z,70.61
2022-09-06T17:31:38.169Z,70.59
2022-09-06T17:34:05.908Z,70.91
2022-09-06T17:36:33.282Z,70.97
2022-09-06T17:39:08.224Z,71.22
2022-09-06T17:41:37.109Z,71.14
2022-09-06T17:44:06.140Z,71.35
2022-09-06T17:46:33.294Z,71.42
2022-09-06T17:49:00.421Z,72.43
2022-09-06T17:51:28.009Z,72.51
2022-09-06T17:53:55.036Z,72.86
2022-09-06T17:56:22.091Z,73.13
2022-09-06T17:58:57.587Z,73.91
2022-09-06T18:01:25.936Z,73.43
2022-09-06T18:03:53.065Z,73.69
2022-09-06T18:06:24.740Z,73.81
2022-09-06T18:08:54.499Z,74.24
2022-09-06T18:11:27.133Z,73.89
2022-09-06T18:14:12.152Z,74.58
2022-09-06T18:16:40.329Z,74.56
2022-09-06T18:19:08.559Z,74.75
2022-09-06T18:21:38.003Z,74.90
2022-09-06T18:24:05.638Z,75.13
2022-09-06T18:26:32.740Z,75.36
2022-09-06T18:29:00.671Z,75.41
2022-09-06T18:31:27.974Z,75.33
2022-09-06T18:33:59.747Z,76.10
2022-09-06T18:36:31.956Z,75.99
2022-09-06T18:39:04.647Z,76.02
2022-09-06T18:41:51.970Z,75.93
2022-09-06T18:44:19.121Z,76.33
2022-09-06T18:46:46.302Z,76.13
2022-09-06T18:49:15.151Z,75.81
2022-09-06T18:51:42.653Z,76.37
2022-09-06T18:54:10.871Z,75.93
2022-09-06T18:56:38.053Z,75.99
2022-09-06T18:59:05.687Z,76.26
2022-09-06T19:01:34.997Z,76.25
2022-09-06T19:04:03.490Z,76.24
2022-09-06T19:06:32.662Z,76.99
2022-09-06T19:09:01.458Z,77.27
2022-09-06T19:11:28.885Z,76.60
2022-09-06T19:13:57.104Z,76.54
2022-09-06T19:16:25.927Z,76.23
2022-09-06T19:18:56.870Z,76.52
2022-09-06T19:21:25.493Z,76.08
2022-09-06T19:24:00.891Z,76.79
2022-09-06T19:26:33.240Z,75.63
2022-09-06T19:29:03.392Z,75.93
2022-09-06T19:31:33.962Z,76.40
2022-09-06T19:34:01.989Z,76.79
2022-09-06T19:36:29.724Z,76.69
2022-09-06T19:39:03.699Z,77.37
2022-09-06T19:41:33.650Z,77.85
2022-09-06T19:44:01.588Z,77.73
2022-09-06T19:46:28.692Z,78.06
2022-09-06T19:48:58.821Z,78.04
2022-09-06T19:51:25.999Z,78.65
2022-09-06T19:53:57.638Z,78.14
2022-09-06T19:56:33.248Z,78.12
2022-09-06T19:59:03.266Z,78.91
2022-09-06T20:01:32.813Z,78.78
2022-09-06T20:04:02.687Z,78.97
2022-09-06T20:06:30.649Z,78.94
2022-09-06T20:08:58.521Z,79.27
2022-09-06T20:11:27.940Z,79.13
2022-09-06T20:13:55.789Z,79.10
2022-09-06T20:16:24.807Z,79.27
2022-09-06T20:18:52.490Z,79.46
2022-09-06T20:21:20.882Z,78.79
2022-09-06T20:23:52.561Z,79.25
2022-09-06T20:26:20.383Z,79.40
2022-09-06T20:28:47.518Z,79.92
2022-09-06T20:31:16.790Z,79.91
2022-09-06T20:33:49.185Z,79.75
2022-09-06T20:36:17.399Z,79.69
2022-09-06T20:38:45.223Z,80.17
2022-09-06T20:41:23.729Z,80.34
2022-09-06T20:44:00.043Z,80.48
2022-09-06T20:46:29.480Z,80.02
2022-09-06T20:48:57.980Z,80.32
2022-09-06T20:51:25.463Z,80.44
2022-09-06T20:53:56.992Z,80.42
2022-09-06T20:56:26.778Z,80.55
2022-09-06T20:58:56.538Z,80.02
2022-09-06T21:01:26.352Z,80.69
2022-09-06T21:03:56.585Z,80.35
2022-09-06T21:06:24.963Z,80.33
2022-09-06T21:08:52.371Z,80.73
2022-09-06T21:11:21.621Z,81.06
2022-09-06T21:13:51.271Z,80.80
2022-09-06T21:16:23.936Z,81.21
2022-09-06T21:19:10.404Z,81.06
2022-09-06T21:21:37.920Z,80.88
2022-09-06T21:24:06.499Z,80.55
2022-09-06T21:26:33.621Z,81.20
2022-09-06T21:29:00.624Z,80.87
2022-09-06T21:31:29.857Z,81.29
2022-09-06T21:33:58.470Z,81.57
2022-09-06T21:36:31.690Z,81.57
2022-09-06T21:39:01.154Z,81.68
2022-09-06T21:41:29.299Z,80.82
2022-09-06T21:43:58.397Z,81.63
2022-09-06T21:46:32.541Z,81.69
2022-09-06T21:49:02.798Z,81.69
2022-09-06T21:51:29.879Z,81.65
2022-09-06T21:53:57.031Z,81.73
2022-09-06T21:56:24.550Z,81.87
2022-09-06T21:58:55.727Z,81.60
2022-09-06T22:01:28.466Z,81.95
2022-09-06T22:03:55.769Z,81.70
2022-09-06T22:06:28.897Z,82.10
2022-09-06T22:08:57.766Z,81.84
2022-09-06T22:11:27.647Z,82.13
2022-09-06T22:13:58.324Z,82.36
2022-09-06T22:16:25.472Z,82.49
2022-09-06T22:18:52.723Z,81.95
2022-09-06T22:21:21.192Z,82.07
2022-09-06T22:23:52.168Z,82.00
2022-09-06T22:26:19.519Z,82.14
2022-09-06T22:28:46.761Z,82.24
2022-09-06T22:31:14.023Z,82.36
2022-09-06T22:33:41.049Z,82.49
2022-09-06T22:36:08.188Z,82.31
2022-09-06T22:38:35.267Z,82.61
2022-09-06T22:41:02.299Z,82.13
2022-09-06T22:43:29.446Z,82.03
2022-09-06T22:46:07.966Z,82.42
2022-09-06T22:48:35.663Z,82.30
2022-09-06T22:51:03.666Z,82.33
2022-09-06T22:53:31.074Z,82.55
2022-09-06T22:55:58.435Z,82.20
2022-09-06T22:58:28.837Z,82.38
2022-09-06T23:00:56.603Z,82.71
2022-09-06T23:03:23.818Z,82.39
2022-09-06T23:05:50.886Z,82.22
2022-09-06T23:08:18.087Z,83.11
2022-09-06T23:10:45.126Z,82.87
2022-09-06T23:13:12.171Z,82.44
2022-09-06T23:15:43.778Z,82.20
2022-09-06T23:18:10.943Z,82.71
2022-09-06T23:20:38.072Z,82.66
2022-09-06T23:23:05.526Z,82.94
2022-09-06T23:25:36.837Z,82.61
2022-09-06T23:28:03.876Z,83.00
2022-09-06T23:30:30.981Z,82.77
2022-09-06T23:32:58.244Z,82.91
2022-09-06T23:35:25.261Z,82.47
2022-09-06T23:37:52.887Z,82.67
2022-09-06T23:40:19.959Z,81.98
2022-09-06T23:42:47.137Z,82.62
2022-09-06T23:45:14.246Z,81.84
2022-09-06T23:47:41.595Z,82.27
2022-09-06T23:50:09.053Z,82.24
2022-09-06T23:52:36.295Z,81.99
2022-09-06T23:55:03.958Z,82.68
2022-09-06T23:57:30.959Z,82.49
2022-09-06T23:59:58.037Z,82.65
